sensor_id;sensor_type;location;lat;lon;timestamp;pressure;altitude;pressure_sealevel;temperature;humidity
20043;BME280;10182;52.896;6.496;2024-01-10T00:03:59;103341.34;;;-4.89;100.00
20043;BME280;10182;52.896;6.496;2024-01-10T00:09:01;103329.19;;;-4.90;100.00
20043;BME280;10182;52.896;6.496;2024-01-10T00:14:05;103326.69;;;-4.88;100.00
20043;BME280;10182;52.896;6.496;2024-01-10T00:19:07;103321.34;;;-4.91;100.00
20043;BME280;10182;52.896;6.496;2024-01-10T00:24:08;103312.09;;;-4.88;100.00
20043;BME280;10182;52.896;6.496;2024-01-10T00:29:11;103311.19;;;-4.88;100.00
20043;BME280;10182;52.896;6.496;2024-01-10T00:34:13;103300.03;;;-4.87;100.00
20043;BME280;10182;52.896;6.496;2024-01-10T00:39:15;103298.16;;;-4.90;100.00
20043;BME280;10182;52.896;6.496;2024-01-10T00:44:18;103306.47;;;-4.96;100.00
20043;BME280;10182;52.896;6.496;2024-01-10T00:49:19;103312.25;;;-5.00;100.00
20043;BME280;10182;52.896;6.496;2024-01-10T00:54:21;103301.00;;;-5.00;100.00
20043;BME280;10182;52.896;6.496;2024-01-10T00:59:24;103297.44;;;-5.02;100.00
20043;BME280;10182;52.896;6.496;2024-01-10T01:04:26;103310.28;;;-5.04;100.00
20043;BME280;10182;52.896;6.496;2024-01-10T01:09:27;103290.56;;;-5.02;100.00
20043;BME280;10182;52.896;6.496;2024-01-10T01:14:30;103282.03;;;-5.01;100.00
20043;BME280;10182;52.896;6.496;2024-01-10T01:19:32;103283.72;;;-5.01;100.00
20043;BME280;10182;52.896;6.496;2024-01-10T01:24:34;103280.06;;;-5.05;100.00
20043;BME280;10182;52.896;6.496;2024-01-10T01:29:37;103279.81;;;-5.10;100.00
20043;BME280;10182;52.896;6.496;2024-01-10T01:34:38;103277.13;;;-5.11;100.00
20043;BME280;10182;52.896;6.496;2024-01-10T01:39:40;103268.38;;;-5.13;100.00
20043;BME280;10182;52.896;6.496;2024-01-10T01:44:43;103278.56;;;-5.16;100.00
20043;BME280;10182;52.896;6.496;2024-01-10T01:49:45;103275.97;;;-5.16;100.00
20043;BME280;10182;52.896;6.496;2024-01-10T01:54:47;103269.09;;;-5.16;100.00
20043;BME280;10182;52.896;6.496;2024-01-10T01:59:50;103280.84;;;-5.21;100.00
20043;BME280;10182;52.896;6.496;2024-01-10T02:04:52;103275.97;;;-5.16;100.00
20043;BME280;10182;52.896;6.496;2024-01-10T02:09:54;103277.75;;;-5.15;100.00
20043;BME280;10182;52.896;6.496;2024-01-10T02:14:57;103271.59;;;-5.17;100.00
20043;BME280;10182;52.896;6.496;2024-01-10T02:20:09;103277.38;;;-5.21;100.00
20043;BME280;10182;52.896;6.496;2024-01-10T02:25:13;103286.38;;;-5.30;100.00
20043;BME280;10182;52.896;6.496;2024-01-10T02:30:15;103279.50;;;-5.29;100.00
20043;BME280;10182;52.896;6.496;2024-01-10T02:35:16;103286.81;;;-5.37;100.00
20043;BME280;10182;52.896;6.496;2024-01-10T02:40:19;103278.88;;;-5.40;100.00
20043;BME280;10182;52.896;6.496;2024-01-10T02:45:21;103274.44;;;-5.42;100.00
20043;BME280;10182;52.896;6.496;2024-01-10T02:50:23;103272.72;;;-5.42;100.00
20043;BME280;10182;52.896;6.496;2024-01-10T02:55:26;103267.66;;;-5.40;100.00
20043;BME280;10182;52.896;6.496;2024-01-10T03:00:27;103266.69;;;-5.42;100.00
20043;BME280;10182;52.896;6.496;2024-01-10T03:05:29;103273.06;;;-5.36;100.00
20043;BME280;10182;52.896;6.496;2024-01-10T03:10:32;103268.75;;;-5.37;100.00
20043;BME280;10182;52.896;6.496;2024-01-10T03:15:34;103270.94;;;-5.43;100.00
20043;BME280;10182;52.896;6.496;2024-01-10T03:20:35;103264.19;;;-5.41;100.00
20043;BME280;10182;52.896;6.496;2024-01-10T03:25:38;103260.00;;;-5.39;100.00
20043;BME280;10182;52.896;6.496;2024-01-10T03:30:40;103257.50;;;-5.37;100.00
20043;BME280;10182;52.896;6.496;2024-01-10T03:35:42;103244.41;;;-5.40;100.00
20043;BME280;10182;52.896;6.496;2024-01-10T03:40:45;103254.66;;;-5.42;100.00
20043;BME280;10182;52.896;6.496;2024-01-10T03:45:46;103258.09;;;-5.41;100.00
20043;BME280;10182;52.896;6.496;2024-01-10T03:50:48;103246.72;;;-5.45;100.00
20043;BME280;10182;52.896;6.496;2024-01-10T03:55:51;103254.56;;;-5.44;100.00
20043;BME280;10182;52.896;6.496;2024-01-10T04:00:53;103248.03;;;-5.52;100.00
20043;BME280;10182;52.896;6.496;2024-01-10T04:05:54;103240.00;;;-5.56;100.00
20043;BME280;10182;52.896;6.496;2024-01-10T04:10:57;103239.50;;;-5.51;100.00
20043;BME280;10182;52.896;6.496;2024-01-10T04:15:59;103240.28;;;-5.52;100.00
20043;BME280;10182;52.896;6.496;2024-01-10T04:21:02;103227.22;;;-5.55;100.00
20043;BME280;10182;52.896;6.496;2024-01-10T04:26:05;103223.00;;;-5.53;100.00
20043;BME280;10182;52.896;6.496;2024-01-10T04:31:07;103229.34;;;-5.48;100.00
20043;BME280;10182;52.896;6.496;2024-01-10T04:36:09;103231.63;;;-5.52;100.00
20043;BME280;10182;52.896;6.496;2024-01-10T04:41:12;103220.97;;;-5.58;100.00
20043;BME280;10182;52.896;6.496;2024-01-10T04:46:13;103220.78;;;-5.62;100.00
20043;BME280;10182;52.896;6.496;2024-01-10T04:51:15;103216.41;;;-5.63;100.00
20043;BME280;10182;52.896;6.496;2024-01-10T04:56:18;103219.16;;;-5.59;100.00
20043;BME280;10182;52.896;6.496;2024-01-10T05:01:20;103209.84;;;-5.57;100.00
20043;BME280;10182;52.896;6.496;2024-01-10T05:06:22;103212.59;;;-5.54;100.00
20043;BME280;10182;52.896;6.496;2024-01-10T05:11:25;103214.69;;;-5.62;100.00
20043;BME280;10182;52.896;6.496;2024-01-10T05:16:27;103204.19;;;-5.65;100.00
20043;BME280;10182;52.896;6.496;2024-01-10T05:21:29;103197.41;;;-5.63;100.00
20043;BME280;10182;52.896;6.496;2024-01-10T05:26:32;103211.56;;;-5.71;100.00
20043;BME280;10182;52.896;6.496;2024-01-10T05:31:34;103202.41;;;-5.66;100.00
20043;BME280;10182;52.896;6.496;2024-01-10T05:36:35;103193.00;;;-5.66;100.00
20043;BME280;10182;52.896;6.496;2024-01-10T05:41:38;103207.50;;;-5.68;100.00
20043;BME280;10182;52.896;6.496;2024-01-10T05:46:40;103203.41;;;-5.64;100.00
20043;BME280;10182;52.896;6.496;2024-01-10T05:51:42;103194.66;;;-5.66;100.00
20043;BME280;10182;52.896;6.496;2024-01-10T05:56:45;103199.56;;;-5.71;100.00
20043;BME280;10182;52.896;6.496;2024-01-10T06:01:47;103191.28;;;-5.65;100.00
20043;BME280;10182;52.896;6.496;2024-01-10T06:06:48;103187.81;;;-5.66;100.00
20043;BME280;10182;52.896;6.496;2024-01-10T06:11:51;103183.53;;;-5.65;100.00
20043;BME280;10182;52.896;6.496;2024-01-10T06:16:53;103180.97;;;-5.65;100.00
20043;BME280;10182;52.896;6.496;2024-01-10T06:21:55;103179.00;;;-5.69;100.00
20043;BME280;10182;52.896;6.496;2024-01-10T06:26:58;103186.03;;;-5.67;100.00
20043;BME280;10182;52.896;6.496;2024-01-10T06:32:00;103182.38;;;-5.70;100.00
20043;BME280;10182;52.896;6.496;2024-01-10T06:37:03;103188.53;;;-5.68;100.00
20043;BME280;10182;52.896;6.496;2024-01-10T06:42:06;103191.38;;;-5.64;100.00
20043;BME280;10182;52.896;6.496;2024-01-10T06:47:11;103191.19;;;-5.67;100.00
20043;BME280;10182;52.896;6.496;2024-01-10T06:52:13;103203.13;;;-5.69;100.00
20043;BME280;10182;52.896;6.496;2024-01-10T06:57:16;103190.28;;;-5.67;100.00
20043;BME280;10182;52.896;6.496;2024-01-10T07:02:18;103196.44;;;-5.65;100.00
20043;BME280;10182;52.896;6.496;2024-01-10T07:07:19;103209.28;;;-5.67;100.00
20043;BME280;10182;52.896;6.496;2024-01-10T07:12:22;103209.72;;;-5.74;100.00
20043;BME280;10182;52.896;6.496;2024-01-10T07:17:24;103210.34;;;-5.78;100.00
20043;BME280;10182;52.896;6.496;2024-01-10T07:22:26;103205.25;;;-5.76;100.00
20043;BME280;10182;52.896;6.496;2024-01-10T07:27:29;103206.75;;;-5.80;100.00
20043;BME280;10182;52.896;6.496;2024-01-10T07:32:30;103209.44;;;-5.79;100.00
20043;BME280;10182;52.896;6.496;2024-01-10T07:37:32;103205.06;;;-5.80;100.00
20043;BME280;10182;52.896;6.496;2024-01-10T07:42:36;103202.69;;;-5.76;100.00
20043;BME280;10182;52.896;6.496;2024-01-10T07:47:39;103199.09;;;-5.79;100.00
20043;BME280;10182;52.896;6.496;2024-01-10T07:52:42;103203.66;;;-5.74;100.00
20043;BME280;10182;52.896;6.496;2024-01-10T07:57:45;103193.25;;;-5.61;100.00
20043;BME280;10182;52.896;6.496;2024-01-10T08:02:47;103191.28;;;-5.65;100.00
20043;BME280;10182;52.896;6.496;2024-01-10T08:07:50;103187.91;;;-5.64;100.00
20043;BME280;10182;52.896;6.496;2024-01-10T08:12:53;103186.50;;;-5.59;100.00
20043;BME280;10182;52.896;6.496;2024-01-10T08:17:54;103184.88;;;-5.57;100.00
20043;BME280;10182;52.896;6.496;2024-01-10T08:22:56;103178.84;;;-5.57;100.00
20043;BME280;10182;52.896;6.496;2024-01-10T08:27:59;103193.34;;;-5.45;100.00
20043;BME280;10182;52.896;6.496;2024-01-10T08:33:01;103183.88;;;-5.44;100.00
20043;BME280;10182;52.896;6.496;2024-01-10T08:38:04;103189.69;;;-5.33;100.00
20043;BME280;10182;52.896;6.496;2024-01-10T08:43:09;103191.31;;;-5.20;100.00
20043;BME280;10182;52.896;6.496;2024-01-10T08:48:11;103197.81;;;-5.27;100.00
20043;BME280;10182;52.896;6.496;2024-01-10T08:53:13;103196.63;;;-5.17;100.00
20043;BME280;10182;52.896;6.496;2024-01-10T08:58:17;103196.53;;;-5.04;100.00
20043;BME280;10182;52.896;6.496;2024-01-10T09:03:19;103192.53;;;-4.99;100.00
20043;BME280;10182;52.896;6.496;2024-01-10T09:08:21;103178.84;;;-4.96;100.00
20043;BME280;10182;52.896;6.496;2024-01-10T09:13:24;103175.34;;;-4.82;100.00
20043;BME280;10182;52.896;6.496;2024-01-10T09:18:26;103188.53;;;-4.77;100.00
20043;BME280;10182;52.896;6.496;2024-01-10T09:23:28;103184.66;;;-4.69;100.00
20043;BME280;10182;52.896;6.496;2024-01-10T09:28:31;103190.34;;;-4.60;100.00
20043;BME280;10182;52.896;6.496;2024-01-10T09:33:32;103184.09;;;-4.48;100.00
20043;BME280;10182;52.896;6.496;2024-01-10T09:38:35;103192.41;;;-4.37;100.00
20043;BME280;10182;52.896;6.496;2024-01-10T09:43:39;103192.28;;;-4.24;100.00
20043;BME280;10182;52.896;6.496;2024-01-10T09:48:40;103196.81;;;-4.20;100.00
20043;BME280;10182;52.896;6.496;2024-01-10T09:53:44;103198.59;;;-4.19;100.00
20043;BME280;10182;52.896;6.496;2024-01-10T09:58:53;103196.72;;;-4.05;100.00
20043;BME280;10182;52.896;6.496;2024-01-10T10:03:57;103192.19;;;-3.93;100.00
20043;BME280;10182;52.896;6.496;2024-01-10T10:09:00;103200.03;;;-3.91;100.00
20043;BME280;10182;52.896;6.496;2024-01-10T10:14:15;103196.47;;;-3.77;100.00
20043;BME280;10182;52.896;6.496;2024-01-10T10:19:22;103195.75;;;-3.74;100.00
20043;BME280;10182;52.896;6.496;2024-01-10T10:24:24;103190.91;;;-3.33;100.00
20043;BME280;10182;52.896;6.496;2024-01-10T10:29:27;103181.78;;;-3.25;100.00
20043;BME280;10182;52.896;6.496;2024-01-10T10:34:30;103189.84;;;-3.19;100.00
20043;BME280;10182;52.896;6.496;2024-01-10T10:39:32;103184.66;;;-3.19;100.00
20043;BME280;10182;52.896;6.496;2024-01-10T10:44:36;103171.09;;;-3.13;100.00
20043;BME280;10182;52.896;6.496;2024-01-10T10:49:47;103162.72;;;-3.08;100.00
20043;BME280;10182;52.896;6.496;2024-01-10T10:54:54;103166.91;;;-2.93;100.00
20043;BME280;10182;52.896;6.496;2024-01-10T10:59:59;103165.50;;;-2.86;100.00
20043;BME280;10182;52.896;6.496;2024-01-10T11:05:01;103157.91;;;-2.82;100.00
20043;BME280;10182;52.896;6.496;2024-01-10T11:10:05;103156.78;;;-2.69;100.00
20043;BME280;10182;52.896;6.496;2024-01-10T11:15:24;103156.38;;;-2.59;100.00
20043;BME280;10182;52.896;6.496;2024-01-10T11:20:39;103158.75;;;-2.45;100.00
20043;BME280;10182;52.896;6.496;2024-01-10T11:25:46;103150.19;;;-2.43;100.00
20043;BME280;10182;52.896;6.496;2024-01-10T11:30:50;103153.00;;;-2.38;100.00
20043;BME280;10182;52.896;6.496;2024-01-10T11:36:09;103147.28;;;-2.31;100.00
20043;BME280;10182;52.896;6.496;2024-01-10T11:41:11;103140.50;;;-2.27;100.00
20043;BME280;10182;52.896;6.496;2024-01-10T11:46:14;103136.81;;;-2.13;100.00
20043;BME280;10182;52.896;6.496;2024-01-10T11:51:19;103133.19;;;-2.16;100.00
20043;BME280;10182;52.896;6.496;2024-01-10T11:56:21;103128.22;;;-2.12;100.00
20043;BME280;10182;52.896;6.496;2024-01-10T12:01:25;103119.56;;;-2.11;100.00
20043;BME280;10182;52.896;6.496;2024-01-10T12:06:28;103116.28;;;-2.07;100.00
20043;BME280;10182;52.896;6.496;2024-01-10T12:11:30;103109.53;;;-2.03;100.00
20043;BME280;10182;52.896;6.496;2024-01-10T12:16:33;103114.78;;;-2.01;100.00
20043;BME280;10182;52.896;6.496;2024-01-10T12:21:35;103109.72;;;-1.98;100.00
20043;BME280;10182;52.896;6.496;2024-01-10T12:26:43;103108.28;;;-1.92;100.00
20043;BME280;10182;52.896;6.496;2024-01-10T12:31:47;103116.28;;;-1.87;100.00
20043;BME280;10182;52.896;6.496;2024-01-10T12:36:48;103107.53;;;-1.89;100.00
20043;BME280;10182;52.896;6.496;2024-01-10T12:41:50;103087.69;;;-1.87;100.00
20043;BME280;10182;52.896;6.496;2024-01-10T12:46:53;103082.09;;;-1.75;100.00
20043;BME280;10182;52.896;6.496;2024-01-10T12:51:55;103086.16;;;-1.82;100.00
20043;BME280;10182;52.896;6.496;2024-01-10T12:56:56;103082.97;;;-1.76;100.00
20043;BME280;10182;52.896;6.496;2024-01-10T13:01:59;103081.56;;;-1.68;100.00
20043;BME280;10182;52.896;6.496;2024-01-10T13:07:01;103074.63;;;-1.67;100.00
20043;BME280;10182;52.896;6.496;2024-01-10T13:12:03;103074.00;;;-1.62;100.00
20043;BME280;10182;52.896;6.496;2024-01-10T13:17:06;103073.34;;;-1.56;100.00
20043;BME280;10182;52.896;6.496;2024-01-10T13:22:09;103058.09;;;-1.48;100.00
20043;BME280;10182;52.896;6.496;2024-01-10T13:27:12;103059.00;;;-1.46;100.00
20043;BME280;10182;52.896;6.496;2024-01-10T13:32:15;103062.53;;;-1.46;100.00
20043;BME280;10182;52.896;6.496;2024-01-10T13:37:17;103065.19;;;-1.44;100.00
20043;BME280;10182;52.896;6.496;2024-01-10T13:42:18;103059.34;;;-1.39;100.00
20043;BME280;10182;52.896;6.496;2024-01-10T13:47:21;103066.31;;;-1.38;100.00
20043;BME280;10182;52.896;6.496;2024-01-10T13:52:24;103063.00;;;-1.33;100.00
20043;BME280;10182;52.896;6.496;2024-01-10T13:57:25;103056.09;;;-1.33;100.00
20043;BME280;10182;52.896;6.496;2024-01-10T14:02:28;103058.19;;;-1.24;100.00
20043;BME280;10182;52.896;6.496;2024-01-10T14:07:30;103061.53;;;-1.27;100.00
20043;BME280;10182;52.896;6.496;2024-01-10T14:12:32;103064.97;;;-1.28;100.00
20043;BME280;10182;52.896;6.496;2024-01-10T14:17:36;103070.81;;;-1.33;100.00
20043;BME280;10182;52.896;6.496;2024-01-10T14:22:37;103073.09;;;-1.41;100.00
20043;BME280;10182;52.896;6.496;2024-01-10T14:27:40;103074.94;;;-1.39;100.00
20043;BME280;10182;52.896;6.496;2024-01-10T14:32:43;103081.88;;;-1.39;100.00
20043;BME280;10182;52.896;6.496;2024-01-10T14:37:47;103076.34;;;-1.47;100.00
20043;BME280;10182;52.896;6.496;2024-01-10T14:42:49;103077.69;;;-1.57;100.00
20043;BME280;10182;52.896;6.496;2024-01-10T14:47:52;103067.97;;;-1.61;100.00
20043;BME280;10182;52.896;6.496;2024-01-10T14:52:53;103068.41;;;-1.71;100.00
20043;BME280;10182;52.896;6.496;2024-01-10T14:57:57;103066.72;;;-1.71;100.00
20043;BME280;10182;52.896;6.496;2024-01-10T15:03:00;103068.13;;;-1.79;100.00
20043;BME280;10182;52.896;6.496;2024-01-10T15:08:04;103075.59;;;-1.87;100.00
20043;BME280;10182;52.896;6.496;2024-01-10T15:13:07;103076.28;;;-1.91;100.00
20043;BME280;10182;52.896;6.496;2024-01-10T15:18:10;103075.69;;;-2.05;100.00
20043;BME280;10182;52.896;6.496;2024-01-10T15:23:12;103073.66;;;-2.12;100.00
20043;BME280;10182;52.896;6.496;2024-01-10T15:28:14;103079.34;;;-2.21;100.00
20043;BME280;10182;52.896;6.496;2024-01-10T15:33:17;103075.59;;;-2.27;100.00
20043;BME280;10182;52.896;6.496;2024-01-10T15:38:19;103088.94;;;-2.39;100.00
20043;BME280;10182;52.896;6.496;2024-01-10T15:43:20;103094.59;;;-2.48;100.00
20043;BME280;10182;52.896;6.496;2024-01-10T15:48:23;103104.66;;;-2.56;100.00
20043;BME280;10182;52.896;6.496;2024-01-10T15:53:25;103104.34;;;-2.62;100.00
20043;BME280;10182;52.896;6.496;2024-01-10T15:58:27;103104.00;;;-2.69;100.00
20043;BME280;10182;52.896;6.496;2024-01-10T16:03:30;103105.63;;;-2.72;100.00
20043;BME280;10182;52.896;6.496;2024-01-10T16:08:32;103107.06;;;-2.78;100.00
20043;BME280;10182;52.896;6.496;2024-01-10T16:13:33;103113.81;;;-2.82;100.00
20043;BME280;10182;52.896;6.496;2024-01-10T16:18:37;103115.22;;;-2.89;100.00
20043;BME280;10182;52.896;6.496;2024-01-10T16:23:38;103116.00;;;-2.91;100.00
20043;BME280;10182;52.896;6.496;2024-01-10T16:28:40;103122.00;;;-2.92;100.00
20043;BME280;10182;52.896;6.496;2024-01-10T16:33:43;103113.09;;;-2.97;100.00
20043;BME280;10182;52.896;6.496;2024-01-10T16:38:45;103108.72;;;-2.98;100.00
20043;BME280;10182;52.896;6.496;2024-01-10T16:43:47;103112.78;;;-3.03;100.00
20043;BME280;10182;52.896;6.496;2024-01-10T16:48:50;103116.06;;;-3.08;100.00
20043;BME280;10182;52.896;6.496;2024-01-10T16:53:51;103108.28;;;-3.08;100.00
20043;BME280;10182;52.896;6.496;2024-01-10T16:58:53;103117.31;;;-3.17;100.00
20043;BME280;10182;52.896;6.496;2024-01-10T17:03:56;103123.34;;;-3.18;100.00
20043;BME280;10182;52.896;6.496;2024-01-10T17:08:57;103129.09;;;-3.24;100.00
20043;BME280;10182;52.896;6.496;2024-01-10T17:14:00;103119.13;;;-3.34;100.00
20043;BME280;10182;52.896;6.496;2024-01-10T17:19:03;103138.81;;;-3.38;100.00
20043;BME280;10182;52.896;6.496;2024-01-10T17:24:06;103141.31;;;-3.40;100.00
20043;BME280;10182;52.896;6.496;2024-01-10T17:29:08;103142.78;;;-3.45;100.00
20043;BME280;10182;52.896;6.496;2024-01-10T17:34:11;103146.94;;;-3.48;100.00
20043;BME280;10182;52.896;6.496;2024-01-10T17:39:12;103151.00;;;-3.53;100.00
20043;BME280;10182;52.896;6.496;2024-01-10T17:44:14;103154.19;;;-3.59;100.00
20043;BME280;10182;52.896;6.496;2024-01-10T17:49:18;103160.84;;;-3.64;100.00
20043;BME280;10182;52.896;6.496;2024-01-10T17:54:19;103154.53;;;-3.69;100.00
20043;BME280;10182;52.896;6.496;2024-01-10T17:59:21;103159.56;;;-3.72;100.00
20043;BME280;10182;52.896;6.496;2024-01-10T18:04:24;103154.31;;;-3.74;100.00
20043;BME280;10182;52.896;6.496;2024-01-10T18:09:26;103155.69;;;-3.81;100.00
20043;BME280;10182;52.896;6.496;2024-01-10T18:14:27;103157.16;;;-3.86;100.00
20043;BME280;10182;52.896;6.496;2024-01-10T18:19:30;103166.28;;;-3.93;100.00
20043;BME280;10182;52.896;6.496;2024-01-10T18:24:32;103168.59;;;-3.99;100.00
20043;BME280;10182;52.896;6.496;2024-01-10T18:29:34;103171.81;;;-4.03;100.00
20043;BME280;10182;52.896;6.496;2024-01-10T18:34:37;103162.19;;;-4.05;100.00
20043;BME280;10182;52.896;6.496;2024-01-10T18:39:39;103175.78;;;-4.10;100.00
20043;BME280;10182;52.896;6.496;2024-01-10T18:44:40;103171.97;;;-4.16;100.00
20043;BME280;10182;52.896;6.496;2024-01-10T18:49:43;103170.19;;;-4.17;100.00
20043;BME280;10182;52.896;6.496;2024-01-10T18:54:45;103168.91;;;-4.26;100.00
20043;BME280;10182;52.896;6.496;2024-01-10T18:59:47;103165.34;;;-4.28;100.00
20043;BME280;10182;52.896;6.496;2024-01-10T19:04:50;103178.94;;;-4.32;100.00
20043;BME280;10182;52.896;6.496;2024-01-10T19:09:51;103188.31;;;-4.34;100.00
20043;BME280;10182;52.896;6.496;2024-01-10T19:14:53;103200.44;;;-4.33;100.00
20043;BME280;10182;52.896;6.496;2024-01-10T19:19:56;103201.81;;;-4.39;100.00
20043;BME280;10182;52.896;6.496;2024-01-10T19:24:58;103196.56;;;-4.41;100.00
20043;BME280;10182;52.896;6.496;2024-01-10T19:30:00;103192.09;;;-4.44;100.00
20043;BME280;10182;52.896;6.496;2024-01-10T19:35:04;103209.16;;;-4.47;100.00
20043;BME280;10182;52.896;6.496;2024-01-10T19:40:07;103222.63;;;-4.53;100.00
20043;BME280;10182;52.896;6.496;2024-01-10T19:45:09;103213.72;;;-4.58;100.00
20043;BME280;10182;52.896;6.496;2024-01-10T19:50:12;103223.91;;;-4.61;100.00
20043;BME280;10182;52.896;6.496;2024-01-10T19:55:14;103231.34;;;-4.67;100.00
20043;BME280;10182;52.896;6.496;2024-01-10T20:00:16;103240.69;;;-4.69;100.00
20043;BME280;10182;52.896;6.496;2024-01-10T20:05:20;103244.09;;;-4.70;100.00
20043;BME280;10182;52.896;6.496;2024-01-10T20:10:21;103235.09;;;-4.77;100.00
20043;BME280;10182;52.896;6.496;2024-01-10T20:15:23;103242.59;;;-4.82;100.00
20043;BME280;10182;52.896;6.496;2024-01-10T20:20:26;103236.47;;;-4.84;100.00
20043;BME280;10182;52.896;6.496;2024-01-10T20:25:29;103245.97;;;-4.83;100.00
20043;BME280;10182;52.896;6.496;2024-01-10T20:30:31;103247.44;;;-4.88;100.00
20043;BME280;10182;52.896;6.496;2024-01-10T20:35:34;103247.53;;;-4.86;100.00
20043;BME280;10182;52.896;6.496;2024-01-10T20:40:38;103249.03;;;-4.90;100.00
20043;BME280;10182;52.896;6.496;2024-01-10T20:45:40;103255.72;;;-4.94;100.00
20043;BME280;10182;52.896;6.496;2024-01-10T20:50:43;103256.53;;;-4.95;100.00
20043;BME280;10182;52.896;6.496;2024-01-10T20:55:47;103260.63;;;-4.98;100.00
20043;BME280;10182;52.896;6.496;2024-01-10T21:00:49;103267.38;;;-5.00;100.00
20043;BME280;10182;52.896;6.496;2024-01-10T21:05:53;103260.25;;;-5.04;100.00
20043;BME280;10182;52.896;6.496;2024-01-10T21:10:55;103256.53;;;-5.10;100.00
20043;BME280;10182;52.896;6.496;2024-01-10T21:15:57;103261.50;;;-5.13;100.00
20043;BME280;10182;52.896;6.496;2024-01-10T21:21:00;103263.84;;;-5.02;100.00
20043;BME280;10182;52.896;6.496;2024-01-10T21:26:03;103275.06;;;-5.17;100.00
20043;BME280;10182;52.896;6.496;2024-01-10T21:31:05;103279.25;;;-5.19;100.00
20043;BME280;10182;52.896;6.496;2024-01-10T21:36:08;103280.69;;;-5.24;100.00
20043;BME280;10182;52.896;6.496;2024-01-10T21:41:10;103287.81;;;-5.20;100.00
20043;BME280;10182;52.896;6.496;2024-01-10T21:46:12;103284.78;;;-5.28;100.00
20043;BME280;10182;52.896;6.496;2024-01-10T21:51:15;103279.34;;;-5.32;100.00
20043;BME280;10182;52.896;6.496;2024-01-10T21:56:17;103287.97;;;-5.32;100.00
20043;BME280;10182;52.896;6.496;2024-01-10T22:01:20;103286.91;;;-5.35;100.00
20043;BME280;10182;52.896;6.496;2024-01-10T22:06:23;103288.50;;;-5.37;100.00
20043;BME280;10182;52.896;6.496;2024-01-10T22:11:25;103288.50;;;-5.37;100.00
20043;BME280;10182;52.896;6.496;2024-01-10T22:16:27;103291.00;;;-5.39;100.00
20043;BME280;10182;52.896;6.496;2024-01-10T22:21:30;103293.03;;;-5.33;100.00
20043;BME280;10182;52.896;6.496;2024-01-10T22:26:32;103296.47;;;-5.34;100.00
20043;BME280;10182;52.896;6.496;2024-01-10T22:31:34;103298.56;;;-5.42;100.00
20043;BME280;10182;52.896;6.496;2024-01-10T22:36:37;103296.88;;;-5.41;100.00
20043;BME280;10182;52.896;6.496;2024-01-10T22:41:39;103310.59;;;-5.42;100.00
20043;BME280;10182;52.896;6.496;2024-01-10T22:46:40;103303.56;;;-5.45;100.00
20043;BME280;10182;52.896;6.496;2024-01-10T22:51:43;103313.81;;;-5.47;100.00
20043;BME280;10182;52.896;6.496;2024-01-10T22:56:46;103316.28;;;-5.48;100.00
20043;BME280;10182;52.896;6.496;2024-01-10T23:01:48;103325.91;;;-5.46;100.00
20043;BME280;10182;52.896;6.496;2024-01-10T23:06:54;103338.28;;;-5.55;100.00
20043;BME280;10182;52.896;6.496;2024-01-10T23:11:56;103339.25;;;-5.53;100.00
20043;BME280;10182;52.896;6.496;2024-01-10T23:16:57;103337.56;;;-5.52;100.00
20043;BME280;10182;52.896;6.496;2024-01-10T23:22:01;103334.97;;;-5.52;100.00
20043;BME280;10182;52.896;6.496;2024-01-10T23:27:03;103339.53;;;-5.48;100.00
20043;BME280;10182;52.896;6.496;2024-01-10T23:32:04;103330.41;;;-5.56;100.00
20043;BME280;10182;52.896;6.496;2024-01-10T23:37:09;103331.50;;;-5.53;100.00
20043;BME280;10182;52.896;6.496;2024-01-10T23:42:10;103331.16;;;-5.59;100.00
20043;BME280;10182;52.896;6.496;2024-01-10T23:47:12;103321.41;;;-5.63;100.00
20043;BME280;10182;52.896;6.496;2024-01-10T23:52:15;103331.84;;;-5.62;100.00
20043;BME280;10182;52.896;6.496;2024-01-10T23:57:17;103329.16;;;-5.63;100.00
